Time;durP1;ratioP1;P1;durP2;ratioP2;P2;SDS_P1;SDS_P2;PMS_P1;PMS_P2;Temp;Humidity;BMP_temperature;BMP_pressure;BME280_temperature;BME280_humidity;BME280_pressure;Samples;Min_cycle;Max_cycle;Signal;HPM_P1;HPM_P2
2022/08/15 00:01:57;;;;;;;4.37;3.90;;;22.10;99.90;;;;;;4933294;29;20216;-73
2022/08/15 00:04:23;;;;;;;5.00;3.80;;;22.00;99.90;;;;;;4934026;29;20189;-73
2022/08/15 00:06:49;;;;;;;3.70;3.50;;;22.00;99.90;;;;;;4918126;29;20479;-74
2022/08/15 00:09:22;;;;;;;4.67;4.20;;;22.00;99.90;;;;;;4933493;29;20982;-73
2022/08/15 00:11:54;;;;;;;5.20;4.37;;;22.00;99.90;;;;;;4933387;29;20195;-73
2022/08/15 00:14:24;;;;;;;5.13;4.27;;;22.00;99.90;;;;;;4934425;29;20421;-74
2022/08/15 00:16:50;;;;;;;3.87;3.60;;;22.00;99.90;;;;;;4934131;29;20421;-73
2022/08/15 00:19:20;;;;;;;4.83;3.80;;;22.00;99.90;;;;;;4917182;29;20437;-73
2022/08/15 00:21:50;;;;;;;3.43;3.23;;;22.00;99.90;;;;;;4933743;29;20442;-72
2022/08/15 00:24:21;;;;;;;4.27;3.90;;;21.90;99.90;;;;;;4934074;29;20520;-72
2022/08/15 00:26:51;;;;;;;6.30;3.47;;;21.90;99.90;;;;;;4934500;29;20441;-74
2022/08/15 00:29:19;;;;;;;4.30;3.90;;;21.90;99.90;;;;;;4934204;29;20461;-74
2022/08/15 00:31:44;;;;;;;4.50;3.40;;;21.90;99.90;;;;;;4934383;29;20973;-74
2022/08/15 00:34:13;;;;;;;5.63;3.70;;;21.90;99.90;;;;;;4934049;29;20493;-75
2022/08/15 00:36:38;;;;;;;5.87;3.20;;;21.90;99.90;;;;;;4934091;29;20182;-74
2022/08/15 00:39:05;;;;;;;3.60;3.30;;;21.80;99.90;;;;;;4934199;29;20508;-72
2022/08/15 00:41:41;;;;;;;4.00;3.57;;;21.80;99.90;;;;;;4932941;29;20280;-74
2022/08/15 00:44:20;;;;;;;4.17;3.77;;;21.70;99.90;;;;;;4934021;29;20952;-73
2022/08/15 00:46:53;;;;;;;4.07;3.73;;;21.70;99.90;;;;;;4934200;29;20421;-73
2022/08/15 00:49:20;;;;;;;3.80;3.60;;;21.90;99.90;;;;;;4934108;29;21008;-73
2022/08/15 00:51:52;;;;;;;4.67;4.23;;;21.80;99.90;;;;;;4933255;29;20441;-73
2022/08/15 00:54:37;;;;;;;5.90;4.00;;;21.80;99.90;;;;;;4933553;29;20473;-73
2022/08/15 00:57:10;;;;;;;4.20;3.90;;;21.70;99.90;;;;;;4934140;29;20590;-74
2022/08/15 00:59:40;;;;;;;6.93;3.70;;;21.70;99.90;;;;;;4933766;29;20417;-73
2022/08/15 02:32:46;;;;;;;4.60;4.20;;;21.30;99.90;;;;;;5077461;23;20504;-74
2022/08/15 02:35:12;;;;;;;4.30;3.90;;;21.30;99.90;;;;;;4931321;29;20426;-74
2022/08/15 02:37:40;;;;;;;4.50;4.20;;;21.30;99.90;;;;;;4913551;29;20783;-74
2022/08/15 02:40:10;;;;;;;4.53;4.13;;;21.30;99.90;;;;;;4913705;29;20950;-75
2022/08/15 02:42:36;;;;;;;4.20;3.90;;;21.40;99.90;;;;;;4913054;29;20521;-71
2022/08/15 02:45:10;;;;;;;6.50;4.60;;;21.40;99.90;;;;;;4917163;29;20410;-74
2022/08/15 02:47:35;;;;;;;6.53;4.20;;;21.50;99.90;;;;;;4916813;29;20473;-75
2022/08/15 02:50:01;;;;;;;6.27;3.90;;;21.50;99.90;;;;;;4916727;29;20461;-74
2022/08/15 02:52:27;;;;;;;7.33;4.47;;;21.50;99.90;;;;;;4916349;29;20213;-73
2022/08/15 02:54:53;;;;;;;4.43;3.90;;;21.50;99.90;;;;;;4917148;29;20910;-74
2022/08/15 02:57:19;;;;;;;4.20;3.80;;;21.50;99.90;;;;;;4917093;29;20257;-74
2022/08/15 02:59:46;;;;;;;4.97;4.37;;;21.50;99.90;;;;;;4916877;29;20258;-74
2022/08/15 03:02:12;;;;;;;5.13;3.83;;;21.50;99.90;;;;;;4915592;29;20667;-74
2022/08/15 03:04:38;;;;;;;5.30;4.50;;;21.40;99.90;;;;;;4917202;29;20957;-73
2022/08/15 03:07:04;;;;;;;9.23;3.80;;;21.40;99.90;;;;;;4916485;29;20426;-74
2022/08/15 03:09:30;;;;;;;4.47;3.70;;;21.40;99.90;;;;;;4916814;29;20999;-74
2022/08/15 03:11:55;;;;;;;7.23;4.10;;;21.40;99.90;;;;;;4915919;29;20536;-73
2022/08/15 03:14:22;;;;;;;4.63;3.73;;;21.40;99.90;;;;;;4916728;29;20254;-74
2022/08/15 03:16:49;;;;;;;8.10;4.13;;;21.40;99.90;;;;;;4916048;29;20178;-75
2022/08/15 03:19:18;;;;;;;7.00;3.97;;;21.40;99.90;;;;;;4917141;29;20442;-75
2022/08/15 03:21:45;;;;;;;4.20;3.80;;;21.40;99.90;;;;;;4916972;29;20442;-74
2022/08/15 03:24:12;;;;;;;4.33;3.90;;;21.40;99.90;;;;;;4917793;29;20414;-74
2022/08/15 03:26:38;;;;;;;4.33;3.67;;;21.40;99.90;;;;;;4917018;29;21067;-74
2022/08/15 03:29:06;;;;;;;6.47;4.00;;;21.40;99.90;;;;;;4916954;29;20461;-75
2022/08/15 03:31:34;;;;;;;3.10;2.90;;;21.40;99.90;;;;;;4915604;29;20500;-74
2022/08/15 03:34:00;;;;;;;5.13;3.77;;;21.40;99.90;;;;;;4916704;29;20481;-74
2022/08/15 03:36:25;;;;;;;5.37;3.90;;;21.40;99.90;;;;;;4916155;29;20820;-72
2022/08/15 03:38:52;;;;;;;3.60;3.30;;;21.40;99.90;;;;;;4916124;29;20816;-74
2022/08/15 03:41:17;;;;;;;4.53;3.40;;;21.30;99.90;;;;;;4915363;29;20868;-73
2022/08/15 03:43:46;;;;;;;4.70;3.70;;;21.30;99.90;;;;;;4916319;29;20421;-74
2022/08/15 03:46:16;;;;;;;4.97;3.47;;;21.30;99.90;;;;;;4915590;29;20174;-74
2022/08/15 03:48:47;;;;;;;3.83;3.03;;;21.30;99.90;;;;;;4916096;29;20430;-74
2022/08/15 03:51:15;;;;;;;4.67;3.50;;;21.30;99.90;;;;;;4915394;29;20468;-71
2022/08/15 03:53:44;;;;;;;3.60;3.30;;;21.30;99.90;;;;;;4916449;29;20992;-76
2022/08/15 03:56:13;;;;;;;3.50;3.00;;;21.20;99.90;;;;;;4915494;29;20426;-75
2022/08/15 03:58:38;;;;;;;4.30;3.30;;;21.20;99.90;;;;;;4915442;29;20442;-75
2022/08/15 04:01:11;;;;;;;4.90;3.67;;;21.10;99.90;;;;;;4915179;29;20438;-75
2022/08/15 04:03:37;;;;;;;3.70;3.30;;;21.10;99.90;;;;;;4915931;29;20190;-74
2022/08/15 04:06:06;;;;;;;3.53;3.23;;;21.10;99.90;;;;;;4915952;29;20926;-75
2022/08/15 04:08:33;;;;;;;5.20;2.87;;;21.00;99.90;;;;;;4915804;29;20273;-73
2022/08/15 04:11:02;;;;;;;3.93;3.63;;;21.00;99.90;;;;;;4914377;29;20473;-75
2022/08/15 04:13:28;;;;;;;11.07;3.97;;;21.00;99.90;;;;;;4915686;29;20513;-75
2022/08/15 04:15:57;;;;;;;3.87;3.20;;;21.00;99.90;;;;;;4915586;29;20976;-74
2022/08/15 04:18:24;;;;;;;3.77;3.40;;;21.00;99.90;;;;;;4915522;29;20418;-74
2022/08/15 04:20:50;;;;;;;3.47;3.17;;;21.00;99.90;;;;;;4914825;29;20474;-74
2022/08/15 04:23:16;;;;;;;5.80;3.20;;;20.90;99.90;;;;;;4915583;29;20817;-75
2022/08/15 04:25:43;;;;;;;7.57;3.80;;;20.80;99.90;;;;;;4914808;29;20434;-75
2022/08/15 04:28:12;;;;;;;3.53;3.30;;;20.80;99.90;;;;;;4915548;29;20189;-75
2022/08/15 04:30:41;;;;;;;6.30;3.20;;;20.80;99.90;;;;;;4914352;29;20470;-74
2022/08/15 04:33:13;;;;;;;9.70;4.03;;;20.80;99.90;;;;;;4915449;29;20448;-75
2022/08/15 04:35:42;;;;;;;3.87;3.57;;;20.70;99.90;;;;;;4915857;29;20881;-75
2022/08/15 04:38:07;;;;;;;3.90;3.60;;;20.80;99.90;;;;;;4915500;29;20473;-75
2022/08/15 04:40:34;;;;;;;5.70;3.70;;;20.80;99.90;;;;;;4914246;29;20434;-72
2022/08/15 04:43:00;;;;;;;6.70;4.30;;;20.80;99.90;;;;;;4916316;29;20181;-74
2022/08/15 04:45:28;;;;;;;6.30;3.50;;;20.80;99.90;;;;;;4915164;29;20456;-74
2022/08/15 04:47:53;;;;;;;3.83;3.53;;;20.80;99.90;;;;;;4915402;29;20919;-72
2022/08/15 04:50:20;;;;;;;3.43;3.13;;;20.80;99.90;;;;;;4914883;29;20476;-74
2022/08/15 04:52:51;;;;;;;4.17;3.50;;;20.90;99.90;;;;;;4914139;29;20345;-74
2022/08/15 04:55:19;;;;;;;2.50;2.30;;;20.90;99.90;;;;;;4915206;29;20414;-74
2022/08/15 04:57:44;;;;;;;6.67;3.30;;;20.80;99.90;;;;;;4914874;29;20799;-73
2022/08/15 05:00:12;;;;;;;3.63;2.70;;;20.80;99.90;;;;;;4914861;29;20418;-74
2022/08/15 05:02:38;;;;;;;2.73;2.63;;;20.80;99.90;;;;;;4913384;29;20218;-73
2022/08/15 05:05:07;;;;;;;3.17;2.97;;;20.80;99.90;;;;;;4914530;29;20504;-74
2022/08/15 05:07:33;;;;;;;3.10;2.60;;;20.80;99.90;;;;;;4913442;29;20430;-73
2022/08/15 05:09:59;;;;;;;2.53;2.33;;;20.70;99.90;;;;;;4914893;29;20476;-73
2022/08/15 05:12:26;;;;;;;4.33;3.93;;;20.80;99.90;;;;;;4913557;29;20205;-73
2022/08/15 05:14:51;;;;;;;3.60;2.40;;;20.80;99.90;;;;;;4914464;29;20418;-74
2022/08/15 05:17:17;;;;;;;3.00;2.50;;;20.80;99.90;;;;;;4914062;29;20588;-73
2022/08/15 05:19:42;;;;;;;2.17;2.07;;;20.80;99.90;;;;;;4912751;29;20191;-75
2022/08/15 05:22:09;;;;;;;3.43;2.17;;;20.80;99.90;;;;;;4913934;29;20206;-74
2022/08/15 05:24:36;;;;;;;3.63;2.50;;;20.70;99.90;;;;;;4913906;29;20261;-73
2022/08/15 05:27:02;;;;;;;7.27;2.40;;;20.60;99.90;;;;;;4914375;29;20797;-73
2022/08/15 05:29:27;;;;;;;3.67;2.60;;;20.60;99.90;;;;;;4913389;29;20476;-74
2022/08/15 05:31:53;;;;;;;2.67;2.47;;;20.60;99.90;;;;;;4913700;29;20462;-73
2022/08/15 05:34:19;;;;;;;3.47;2.30;;;20.60;99.90;;;;;;4914312;29;20178;-74
2022/08/15 05:36:49;;;;;;;3.53;1.97;;;20.60;99.90;;;;;;4913905;29;20962;-75
2022/08/15 05:39:23;;;;;;;2.37;2.03;;;20.60;99.90;;;;;;4913506;29;20441;-74
2022/08/15 05:42:18;;;;;;;2.83;1.93;;;20.70;99.90;;;;;;4913787;29;20481;-75
2022/08/15 05:45:01;;;;;;;2.93;2.30;;;20.80;99.90;;;;;;4914177;29;20802;-74
2022/08/15 05:47:41;;;;;;;5.67;2.30;;;20.80;99.90;;;;;;4913813;29;20418;-74
2022/08/15 05:50:20;;;;;;;2.87;2.40;;;20.80;99.90;;;;;;4914431;29;20465;-74
2022/08/15 05:53:09;;;;;;;2.40;1.97;;;20.70;99.90;;;;;;4913903;29;20434;-75
2022/08/15 05:56:04;;;;;;;2.90;2.33;;;20.70;99.90;;;;;;4906013;29;20477;-72
2022/08/15 05:58:48;;;;;;;2.30;2.20;;;20.70;99.90;;;;;;4913922;29;20958;-74
2022/08/15 06:01:38;;;;;;;3.20;2.17;;;20.60;99.90;;;;;;4912810;29;20969;-73
2022/08/15 06:04:11;;;;;;;2.30;2.20;;;20.60;99.90;;;;;;4914321;29;20417;-75
2022/08/15 06:06:42;;;;;;;2.63;2.00;;;20.60;99.90;;;;;;4912505;29;20434;-74
2022/08/15 06:09:35;;;;;;;2.70;2.30;;;20.70;99.90;;;;;;4914115;29;20821;-74
2022/08/15 06:12:06;;;;;;;2.30;2.03;;;20.70;99.90;;;;;;4913333;29;20437;-75
2022/08/15 06:14:37;;;;;;;2.10;1.90;;;20.70;99.90;;;;;;4913760;29;20422;-74
2022/08/15 06:17:10;;;;;;;2.60;2.40;;;20.70;99.90;;;;;;4913822;29;20837;-74
2022/08/15 06:19:40;;;;;;;3.50;1.53;;;20.70;99.90;;;;;;4917746;29;20517;-74
2022/08/15 06:22:42;;;;;;;2.57;2.40;;;20.70;99.90;;;;;;4916595;29;20442;-74
2022/08/15 06:25:33;;;;;;;2.57;2.37;;;20.70;99.90;;;;;;4917807;29;20456;-74
2022/08/15 06:28:03;;;;;;;3.03;2.10;;;20.80;99.90;;;;;;4917748;29;20445;-74
2022/08/15 06:30:49;;;;;;;2.10;2.00;;;20.80;99.90;;;;;;4916902;29;20484;-75
2022/08/15 06:33:22;;;;;;;4.30;2.53;;;20.80;99.90;;;;;;4916793;29;20524;-74
2022/08/15 06:36:10;;;;;;;3.10;2.13;;;20.70;99.90;;;;;;4917802;29;20485;-75
2022/08/15 06:39:01;;;;;;;3.93;2.23;;;20.70;99.90;;;;;;4917156;29;20926;-74
2022/08/15 06:41:58;;;;;;;2.30;1.93;;;20.60;99.90;;;;;;4916548;29;20436;-75
2022/08/15 06:44:26;;;;;;;3.50;2.40;;;20.50;99.90;;;;;;4917394;29;20787;-74
2022/08/15 06:46:54;;;;;;;3.50;2.60;;;20.40;99.90;;;;;;4916812;29;20960;-74
2022/08/15 06:49:22;;;;;;;2.23;2.00;;;20.50;99.90;;;;;;4916709;29;20469;-74
2022/08/15 06:51:48;;;;;;;2.20;2.10;;;20.50;99.90;;;;;;4916319;29;20438;-74
2022/08/15 06:54:22;;;;;;;5.93;2.30;;;20.50;99.90;;;;;;4917089;29;20433;-74
2022/08/15 06:57:14;;;;;;;2.87;2.63;;;20.60;99.90;;;;;;4915526;29;20523;-75
2022/08/15 06:59:56;;;;;;;2.30;1.97;;;20.80;99.90;;;;;;4916930;29;20446;-74
2022/08/15 07:02:43;;;;;;;6.63;2.00;;;21.50;99.90;;;;;;4916029;29;20446;-73
2022/08/15 07:05:29;;;;;;;2.43;2.23;;;22.20;99.90;;;;;;4917169;29;20758;-74
2022/08/15 07:08:21;;;;;;;2.33;2.10;;;22.30;99.90;;;;;;4916192;29;20442;-73
2022/08/15 07:11:12;;;;;;;2.30;2.10;;;22.20;99.90;;;;;;4914526;29;20501;-75
2022/08/15 07:13:50;;;;;;;1.93;1.83;;;22.10;99.90;;;;;;4916771;29;20505;-74
2022/08/15 07:16:27;;;;;;;3.37;2.10;;;22.00;99.90;;;;;;4916535;29;20438;-75
2022/08/15 07:18:56;;;;;;;3.40;2.30;;;21.90;99.90;;;;;;4916925;29;20422;-72
2022/08/15 07:21:22;;;;;;;2.50;2.30;;;21.70;99.90;;;;;;4915350;29;20778;-75
2022/08/15 07:24:10;;;;;;;4.40;2.23;;;21.60;99.90;;;;;;4916966;29;20418;-74
2022/08/15 07:27:14;;;;;;;6.50;2.20;;;21.60;99.90;;;;;;4916223;29;20414;-73
2022/08/15 07:29:54;;;;;;;3.27;2.27;;;21.80;99.90;;;;;;4915813;29;20898;-75
2022/08/15 07:32:28;;;;;;;2.70;1.73;;;22.50;99.90;;;;;;4915640;29;20501;-73
2022/08/15 07:34:54;;;;;;;2.90;1.97;;;23.40;99.90;;;;;;4916106;29;20423;-75
2022/08/15 07:37:22;;;;;;;3.57;1.90;;;24.20;99.90;;;;;;4916599;29;20422;-75
2022/08/15 07:40:14;;;;;;;2.33;1.40;;;24.80;99.90;;;;;;4916645;29;20193;-75
2022/08/15 07:42:42;;;;;;;2.30;2.10;;;25.50;99.90;;;;;;4914849;29;20525;-75
2022/08/15 07:45:18;;;;;;;5.30;2.10;;;26.00;99.90;;;;;;4916531;29;20858;-74
2022/08/15 07:47:58;;;;;;;2.40;2.10;;;26.50;99.90;;;;;;4916335;29;20795;-75
2022/08/15 07:50:42;;;;;;;4.80;1.97;;;26.40;99.90;;;;;;4915637;29;20460;-72
2022/08/15 07:53:08;;;;;;;1.93;1.70;;;25.90;99.90;;;;;;4915948;29;20402;-75
2022/08/15 07:55:33;;;;;;;3.10;1.60;;;25.60;99.90;;;;;;4915370;29;20778;-72
2022/08/15 07:58:07;;;;;;;2.33;1.50;;;25.20;99.90;;;;;;4916074;29;20206;-74
2022/08/15 08:00:34;;;;;;;4.30;1.70;;;24.90;99.90;;;;;;4915215;29;20178;-71
2022/08/15 08:03:03;;;;;;;3.43;1.83;;;24.50;99.90;;;;;;4916052;29;20778;-74
2022/08/15 08:05:36;;;;;;;3.80;1.77;;;24.30;99.90;;;;;;4915804;29;20411;-75
2022/08/15 08:08:06;;;;;;;2.40;2.20;;;24.30;99.90;;;;;;4914786;29;20548;-75
2022/08/15 08:10:36;;;;;;;2.20;2.00;;;24.30;99.90;;;;;;4914749;29;20541;-71
2022/08/15 08:13:17;;;;;;;9.07;1.87;;;24.20;99.90;;;;;;4915814;29;20410;-74
2022/08/15 08:15:55;;;;;;;2.90;1.80;;;24.20;99.90;;;;;;4914656;29;20461;-75
2022/08/15 08:18:31;;;;;;;2.13;1.50;;;24.00;99.90;;;;;;4915566;29;20461;-74
2022/08/15 08:21:06;;;;;;;1.60;1.43;;;23.90;99.90;;;;;;4914418;29;20445;-75
2022/08/15 08:23:38;;;;;;;1.63;1.53;;;23.70;99.90;;;;;;4915423;29;20422;-75
2022/08/15 08:26:22;;;;;;;1.50;1.40;;;23.80;99.90;;;;;;4915563;29;20983;-75
2022/08/15 08:28:56;;;;;;;2.43;2.07;;;23.90;99.90;;;;;;4915191;29;20449;-74
2022/08/15 08:31:30;;;;;;;3.63;2.20;;;24.70;99.90;;;;;;4914703;29;20544;-73
2022/08/15 08:34:09;;;;;;;2.13;1.40;;;25.30;99.90;;;;;;4915589;29;20438;-74
2022/08/15 08:36:58;;;;;;;2.43;1.60;;;26.00;99.90;;;;;;4914939;29;21083;-74
2022/08/15 08:39:39;;;;;;;1.60;1.50;;;26.70;99.90;;;;;;4914240;29;20481;-75
2022/08/15 08:42:24;;;;;;;1.73;1.63;;;27.50;99.90;;;;;;4914256;29;20536;-75
2022/08/15 08:45:10;;;;;;;1.50;1.40;;;28.00;99.90;;;;;;4915135;29;20418;-75
2022/08/15 08:48:05;;;;;;;1.80;1.70;;;28.10;99.90;;;;;;4914487;29;20425;-75
2022/08/15 08:50:39;;;;;;;2.10;1.93;;;28.50;99.90;;;;;;4914260;29;20490;-75
2022/08/15 08:53:39;;;;;;;3.07;2.43;;;28.80;99.90;;;;;;4915226;29;20845;-75
2022/08/15 08:56:17;;;;;;;2.50;2.30;;;29.20;99.90;;;;;;4915081;29;20410;-74
2022/08/15 08:59:01;;;;;;;2.13;1.80;;;29.10;99.90;;;;;;4914973;29;20454;-75
2022/08/15 09:01:28;;;;;;;3.30;1.77;;;29.00;99.90;;;;;;4913929;29;20425;-75
2022/08/15 09:04:02;;;;;;;2.73;2.53;;;28.50;99.90;;;;;;4914616;29;20899;-74
2022/08/15 09:06:36;;;;;;;1.90;1.60;;;28.30;99.90;;;;;;4913948;29;20785;-73
2022/08/15 09:09:11;;;;;;;3.80;1.70;;;28.50;99.90;;;;;;4914935;29;20420;-75
2022/08/15 09:11:49;;;;;;;2.00;1.67;;;28.70;99.90;;;;;;4913866;29;20465;-75
2022/08/15 09:14:23;;;;;;;2.30;2.20;;;29.10;99.90;;;;;;4914809;29;20762;-73
2022/08/15 09:16:51;;;;;;;5.17;2.40;;;29.20;99.90;;;;;;4914439;29;20520;-74
2022/08/15 09:19:26;;;;;;;2.00;1.90;;;28.80;99.90;;;;;;4913914;29;20435;-74
2022/08/15 09:21:52;;;;;;;3.43;1.80;;;28.60;99.90;;;;;;4914061;29;20437;-75
2022/08/15 09:24:20;;;;;;;2.00;1.90;;;29.10;99.90;;;;;;4914907;29;20505;-74
2022/08/15 09:27:27;;;;;;;1.67;1.57;;;29.80;99.90;;;;;;4914862;29;20771;-75
2022/08/15 09:30:03;;;;;;;2.17;2.07;;;30.20;99.90;;;;;;4914507;29;20499;-73
2022/08/15 09:32:28;;;;;;;1.77;1.67;;;30.50;99.90;;;;;;4913067;29;20453;-74
2022/08/15 09:35:14;;;;;;;1.43;1.37;;;30.60;99.90;;;;;;4914360;29;20561;-73
2022/08/15 09:38:15;;;;;;;2.73;1.50;;;30.10;99.90;;;;;;4914173;29;20170;-74
2022/08/15 09:41:09;;;;;;;1.70;1.60;;;29.60;99.90;;;;;;4903603;29;20438;-75
2022/08/15 09:43:55;;;;;;;2.97;1.87;;;28.90;99.90;;;;;;4913536;29;20501;-73
2022/08/15 09:47:00;;;;;;;2.23;2.13;;;29.40;99.90;;;;;;4914403;29;20844;-73
2022/08/15 09:50:10;;;;;;;1.87;1.77;;;29.90;99.90;;;;;;4914173;29;20481;-74
2022/08/15 09:52:47;;;;;;;2.33;1.90;;;30.70;99.90;;;;;;4912738;29;20436;-75
2022/08/15 09:55:34;;;;;;;1.97;1.77;;;31.20;99.90;;;;;;4913874;29;20405;-73
2022/08/15 09:58:14;;;;;;;1.53;1.43;;;31.60;99.90;;;;;;4914353;29;20763;-74
2022/08/15 10:00:52;;;;;;;2.30;1.53;;;32.20;99.90;;;;;;4913322;29;20428;-74
2022/08/15 10:03:25;;;;;;;3.13;1.93;;;32.20;99.90;;;;;;4914199;29;20794;-75
2022/08/15 10:06:05;;;;;;;3.17;1.80;;;32.30;99.90;;;;;;4914155;29;20510;-74
2022/08/15 10:09:03;;;;;;;1.70;1.60;;;32.00;99.90;;;;;;4913849;29;20405;-75
2022/08/15 10:11:31;;;;;;;1.70;1.60;;;32.20;99.90;;;;;;4893357;29;20461;-74
2022/08/15 10:14:19;;;;;;;3.80;1.43;;;32.50;99.90;;;;;;4914161;29;20795;-75
2022/08/15 10:16:50;;;;;;;2.43;2.23;;;32.60;99.90;;;;;;4905202;29;20430;-76
2022/08/15 10:19:38;;;;;;;1.73;1.53;;;32.20;99.90;;;;;;4913996;29;20502;-75
2022/08/15 10:22:22;;;;;;;3.93;1.63;;;31.50;99.90;;;;;;4913183;29;20434;-76
2022/08/15 10:25:39;;;;;;;3.03;1.70;;;31.60;99.90;;;;;;4914131;29;20961;-76
2022/08/15 10:28:21;;;;;;;2.10;1.83;;;32.00;99.90;;;;;;4882225;29;20864;-75
2022/08/15 10:31:01;;;;;;;1.77;1.67;;;32.60;99.30;;;;;;4913315;29;20980;-75
2022/08/15 10:33:34;;;;;;;3.67;1.50;;;32.70;99.00;;;;;;4913781;29;20958;-74
2022/08/15 10:36:21;;;;;;;1.60;1.50;;;32.20;98.90;;;;;;4913312;29;20895;-75
2022/08/15 10:39:12;;;;;;;1.43;1.23;;;32.60;98.50;;;;;;4914089;29;20417;-75
2022/08/15 10:41:56;;;;;;;2.30;1.27;;;32.90;98.70;;;;;;4912977;29;20532;-75
2022/08/15 10:44:52;;;;;;;1.47;1.37;;;33.00;96.90;;;;;;4913495;29;20502;-75
2022/08/15 10:47:37;;;;;;;1.23;1.10;;;33.10;96.20;;;;;;4913025;29;20933;-76
2022/08/15 10:50:25;;;;;;;2.83;1.63;;;33.10;96.70;;;;;;4913900;29;20453;-75
2022/08/15 10:53:13;;;;;;;1.93;1.60;;;33.40;95.80;;;;;;4913477;29;20449;-75
2022/08/15 10:55:40;;;;;;;1.70;1.60;;;33.70;94.10;;;;;;4913225;29;20434;-74
2022/08/15 10:58:14;;;;;;;1.93;1.30;;;33.70;94.10;;;;;;4913789;29;20859;-75
2022/08/15 11:01:12;;;;;;;0.90;0.90;;;33.60;94.00;;;;;;4913630;29;20418;-78
2022/08/15 11:04:05;;;;;;;1.17;1.07;;;33.30;93.70;;;;;;4910772;29;20430;-74
2022/08/15 11:06:34;;;;;;;1.53;1.40;;;32.10;94.60;;;;;;4917220;29;20927;-75
2022/08/15 11:09:09;;;;;;;2.67;1.53;;;31.00;95.50;;;;;;4917484;29;20417;-74
2022/08/15 11:11:43;;;;;;;2.83;1.70;;;30.20;96.50;;;;;;4915807;29;20965;-71
2022/08/15 11:14:27;;;;;;;1.40;1.30;;;30.20;97.10;;;;;;4917083;29;20424;-74
2022/08/15 11:16:54;;;;;;;1.60;1.50;;;30.80;97.70;;;;;;4916742;29;20418;-72
2022/08/15 11:19:30;;;;;;;1.50;1.40;;;31.70;96.10;;;;;;4916603;29;20996;-73
2022/08/15 11:22:01;;;;;;;2.07;1.70;;;32.00;95.40;;;;;;4916184;29;20932;-73
2022/08/15 11:24:30;;;;;;;1.60;1.37;;;31.70;95.20;;;;;;4915836;29;20942;-73
2022/08/15 11:27:16;;;;;;;1.53;1.27;;;31.10;95.40;;;;;;4916669;29;20986;-73
2022/08/15 11:29:44;;;;;;;1.93;1.73;;;30.40;95.80;;;;;;4916402;29;20457;-74
2022/08/15 11:32:21;;;;;;;5.33;1.53;;;30.50;96.40;;;;;;4915390;29;20872;-73
2022/08/15 11:34:47;;;;;;;1.40;1.30;;;30.60;94.90;;;;;;4916398;29;20406;-73
2022/08/15 11:37:21;;;;;;;1.27;1.27;;;30.50;95.80;;;;;;4916356;29;20920;-72
2022/08/15 11:40:00;;;;;;;2.70;1.90;;;30.30;96.10;;;;;;4916668;29;20202;-73
2022/08/15 11:42:30;;;;;;;1.27;1.27;;;29.70;96.90;;;;;;4915290;29;20976;-73
2022/08/15 11:45:00;;;;;;;2.80;1.73;;;29.40;98.30;;;;;;4916205;29;20521;-73
2022/08/15 11:47:29;;;;;;;4.70;1.63;;;29.30;98.30;;;;;;4916429;29;20632;-73
2022/08/15 11:50:00;;;;;;;1.50;1.40;;;29.60;98.70;;;;;;4916213;29;20490;-72
2022/08/15 11:52:30;;;;;;;1.87;1.77;;;29.70;97.80;;;;;;4915457;29;20434;-74
2022/08/15 11:55:19;;;;;;;2.20;2.03;;;29.50;97.40;;;;;;4916359;29;20772;-72
2022/08/15 11:57:48;;;;;;;2.87;1.40;;;29.40;97.50;;;;;;4915504;29;20406;-73
2022/08/15 12:00:36;;;;;;;1.50;1.40;;;29.50;97.10;;;;;;4915884;29;20414;-71
2022/08/15 12:03:20;;;;;;;1.70;1.70;;;29.30;98.00;;;;;;4916301;29;20926;-73
2022/08/15 12:05:47;;;;;;;2.30;1.80;;;29.30;98.10;;;;;;4942411;29;20766;-73
2022/08/15 12:08:12;;;;;;;1.67;1.57;;;29.40;98.60;;;;;;4941428;29;20425;-72
2022/08/15 12:10:41;;;;;;;4.73;2.03;;;29.50;98.40;;;;;;4938106;28;20560;-70
2022/08/15 12:13:07;;;;;;;2.30;1.37;;;29.70;98.00;;;;;;4942934;28;20181;-72
2022/08/15 12:15:33;;;;;;;2.53;1.80;;;30.10;98.70;;;;;;4943479;29;20429;-72
2022/08/15 12:18:04;;;;;;;3.80;1.90;;;30.50;97.00;;;;;;4944713;29;20421;-74
2022/08/15 12:20:57;;;;;;;2.17;1.53;;;30.60;96.80;;;;;;4941786;29;20272;-73
2022/08/15 12:23:30;;;;;;;2.40;1.57;;;30.20;97.10;;;;;;4938801;28;20432;-73
2022/08/15 12:25:59;;;;;;;2.87;1.50;;;30.20;97.80;;;;;;4953495;28;20420;-73
2022/08/15 12:28:26;;;;;;;4.67;2.20;;;30.30;97.40;;;;;;4939075;28;20429;-73
2022/08/15 12:31:20;;;;;;;1.83;1.73;;;30.30;96.90;;;;;;4933531;29;20966;-74
2022/08/15 12:33:46;;;;;;;2.40;1.70;;;30.50;96.80;;;;;;4934717;29;20476;-74
2022/08/15 12:36:12;;;;;;;3.90;1.50;;;30.20;96.90;;;;;;4934605;29;20911;-73
2022/08/15 12:38:39;;;;;;;2.20;1.53;;;29.90;96.90;;;;;;4933695;29;20562;-74
2022/08/15 12:41:06;;;;;;;2.63;2.10;;;29.50;97.10;;;;;;4933758;29;20205;-74
2022/08/15 12:43:32;;;;;;;2.90;1.70;;;29.60;97.50;;;;;;4933876;29;20424;-76
2022/08/15 12:45:58;;;;;;;4.77;2.03;;;29.70;96.70;;;;;;4934271;29;20418;-74
2022/08/15 12:48:27;;;;;;;1.87;1.70;;;29.60;96.60;;;;;;4933487;29;20417;-74
2022/08/15 12:50:53;;;;;;;2.67;2.10;;;29.40;97.40;;;;;;4933360;29;20237;-73
2022/08/15 12:53:19;;;;;;;2.73;1.70;;;29.40;96.80;;;;;;4933876;29;20430;-71
2022/08/15 12:55:47;;;;;;;2.07;1.87;;;29.30;97.00;;;;;;4934333;29;20848;-74
2022/08/15 12:58:14;;;;;;;3.00;1.97;;;29.20;96.60;;;;;;4933989;29;20602;-71
2022/08/15 13:00:41;;;;;;;5.90;2.20;;;29.10;96.50;;;;;;4932436;29;20468;-74
2022/08/15 13:03:28;;;;;;;1.63;1.53;;;29.00;96.60;;;;;;4934098;29;20949;-73
2022/08/15 13:06:20;;;;;;;3.93;1.90;;;28.90;97.90;;;;;;4934245;29;20424;-72
2022/08/15 13:08:45;;;;;;;2.17;1.97;;;28.90;97.40;;;;;;4930970;29;21029;-73
2022/08/15 13:11:11;;;;;;;2.30;2.10;;;28.70;97.90;;;;;;4932518;29;20473;-74
2022/08/15 13:13:36;;;;;;;2.13;1.77;;;28.70;97.30;;;;;;4933407;29;20189;-73
2022/08/15 13:16:08;;;;;;;2.50;2.03;;;28.70;97.40;;;;;;4859670;29;20664;-73
2022/08/15 13:18:36;;;;;;;2.20;2.00;;;28.60;97.50;;;;;;4810166;29;20961;-74
2022/08/15 13:23:54;;;;;;;3.40;2.27;;;28.50;97.30;;;;;;4842055;29;20767;-73
2022/08/15 13:26:26;;;;;;;2.60;2.17;;;28.50;96.80;;;;;;4814658;29;20793;-73
2022/08/15 13:28:55;;;;;;;2.20;1.90;;;28.50;97.40;;;;;;4816756;29;20781;-75
2022/08/15 13:31:21;;;;;;;3.47;2.20;;;28.40;97.40;;;;;;4826211;29;20886;-76
2022/08/15 13:33:47;;;;;;;2.17;2.07;;;28.30;97.60;;;;;;4815639;29;20831;-76
2022/08/15 13:36:16;;;;;;;2.60;2.40;;;28.30;98.10;;;;;;4828636;29;20673;-76
2022/08/15 13:38:46;;;;;;;5.33;2.83;;;28.30;97.60;;;;;;4829491;29;20449;-73
2022/08/15 13:41:17;;;;;;;2.03;1.93;;;28.40;97.40;;;;;;4834995;29;20623;-75
2022/08/15 13:43:44;;;;;;;2.20;2.10;;;28.40;97.60;;;;;;4843121;29;21368;-72
2022/08/15 13:46:12;;;;;;;5.60;2.73;;;28.20;97.70;;;;;;4827639;29;20922;-74
2022/08/15 13:48:43;;;;;;;2.30;2.17;;;28.20;97.50;;;;;;4835542;29;20457;-77
2022/08/15 13:51:13;;;;;;;3.47;2.40;;;28.10;97.50;;;;;;4814892;29;20845;-75
2022/08/15 13:53:41;;;;;;;3.50;2.50;;;27.90;97.90;;;;;;4834917;29;20771;-74
2022/08/15 13:56:10;;;;;;;2.80;2.30;;;27.80;98.40;;;;;;4837939;29;21217;-73
2022/08/15 13:58:52;;;;;;;3.10;2.83;;;27.50;98.90;;;;;;4839389;29;20937;-72
2022/08/15 14:01:26;;;;;;;2.80;2.40;;;27.30;99.90;;;;;;4831505;29;20781;-76
2022/08/15 14:07:16;;;;;;;2.90;2.60;;;27.30;99.90;;;;;;4838530;29;20851;-74
2022/08/15 14:09:42;;;;;;;3.67;3.33;;;27.40;99.90;;;;;;4828950;29;20754;-73
2022/08/15 14:12:11;;;;;;;3.17;2.40;;;27.50;99.90;;;;;;4832084;29;20766;-80
2022/08/15 14:14:37;;;;;;;2.43;2.10;;;27.80;99.90;;;;;;4807098;29;20436;-73
2022/08/15 14:17:07;;;;;;;6.37;2.30;;;27.90;99.90;;;;;;4821081;29;20838;-74
2022/08/15 14:19:33;;;;;;;3.57;2.70;;;27.90;99.90;;;;;;4820092;29;20960;-75
2022/08/15 14:21:59;;;;;;;6.43;2.90;;;27.80;99.90;;;;;;4823469;29;20926;-75
2022/08/15 14:24:26;;;;;;;3.70;2.73;;;27.50;99.90;;;;;;4819898;29;20701;-74
2022/08/15 14:26:52;;;;;;;3.40;2.60;;;27.30;99.90;;;;;;4824732;29;20497;-74
2022/08/15 14:29:33;;;;;;;3.20;2.57;;;27.10;99.90;;;;;;4832210;29;20911;-75
2022/08/15 14:31:59;;;;;;;3.43;2.80;;;26.80;99.90;;;;;;4810067;29;20647;-75
2022/08/15 14:34:25;;;;;;;3.40;3.17;;;26.50;99.90;;;;;;4821789;29;20919;-73
2022/08/15 14:36:54;;;;;;;3.10;2.90;;;26.40;99.90;;;;;;4819851;29;20767;-75
2022/08/15 14:39:21;;;;;;;2.67;2.47;;;26.20;99.90;;;;;;4834773;29;20761;-75
2022/08/15 14:41:47;;;;;;;6.63;2.63;;;26.00;99.90;;;;;;4817649;29;20719;-74
2022/08/15 14:44:15;;;;;;;6.43;3.73;;;25.80;99.90;;;;;;4833167;29;20845;-75
2022/08/15 14:46:42;;;;;;;3.10;2.90;;;25.60;99.90;;;;;;4823007;29;21322;-75
2022/08/15 14:49:09;;;;;;;5.70;3.10;;;25.20;99.90;;;;;;4817167;29;20783;-73
2022/08/15 14:51:37;;;;;;;4.20;3.80;;;24.90;99.90;;;;;;4822044;29;20833;-75
2022/08/15 14:54:06;;;;;;;3.17;2.70;;;24.70;99.90;;;;;;4817815;29;20843;-75
2022/08/15 14:56:32;;;;;;;5.30;3.53;;;24.60;99.90;;;;;;4817810;29;20980;-75
2022/08/15 14:58:59;;;;;;;3.30;2.93;;;24.30;99.90;;;;;;4895176;29;20465;-74